sensor_id;sensor_type;location;lat;lon;timestamp;P1;durP1;ratioP1;P2;durP2;ratioP2
51020;SDS011;38907;45.562;8.856;2023-08-07T00:01:04;0.45;;;0.20;;
51020;SDS011;38907;45.562;8.856;2023-08-07T00:06:07;0.43;;;0.35;;
51020;SDS011;38907;45.562;8.856;2023-08-07T00:11:09;0.38;;;0.20;;
51020;SDS011;38907;45.562;8.856;2023-08-07T00:16:13;1.70;;;0.32;;
51020;SDS011;38907;45.562;8.856;2023-08-07T00:21:15;1.95;;;0.30;;
51020;SDS011;38907;45.562;8.856;2023-08-07T00:26:17;0.45;;;0.45;;
51020;SDS011;38907;45.562;8.856;2023-08-07T00:31:20;0.43;;;0.40;;
51020;SDS011;38907;45.562;8.856;2023-08-07T00:36:23;1.60;;;0.40;;
51020;SDS011;38907;45.562;8.856;2023-08-07T00:41:25;0.30;;;0.30;;
51020;SDS011;38907;45.562;8.856;2023-08-07T00:46:29;0.22;;;0.20;;
51020;SDS011;38907;45.562;8.856;2023-08-07T00:51:32;0.28;;;0.28;;
51020;SDS011;38907;45.562;8.856;2023-08-07T00:56:34;0.30;;;0.30;;
51020;SDS011;38907;45.562;8.856;2023-08-07T01:01:38;0.32;;;0.30;;
51020;SDS011;38907;45.562;8.856;2023-08-07T01:06:40;0.30;;;0.30;;
51020;SDS011;38907;45.562;8.856;2023-08-07T01:11:43;0.47;;;0.32;;
51020;SDS011;38907;45.562;8.856;2023-08-07T01:16:47;0.50;;;0.40;;
51020;SDS011;38907;45.562;8.856;2023-08-07T01:21:54;0.20;;;0.20;;
51020;SDS011;38907;45.562;8.856;2023-08-07T01:27:11;0.63;;;0.32;;
51020;SDS011;38907;45.562;8.856;2023-08-07T01:32:18;0.22;;;0.22;;
51020;SDS011;38907;45.562;8.856;2023-08-07T01:37:23;0.40;;;0.30;;
51020;SDS011;38907;45.562;8.856;2023-08-07T01:42:25;0.82;;;0.28;;
51020;SDS011;38907;45.562;8.856;2023-08-07T01:47:28;1.00;;;0.30;;
51020;SDS011;38907;45.562;8.856;2023-08-07T01:52:31;0.23;;;0.20;;
51020;SDS011;38907;45.562;8.856;2023-08-07T01:57:34;0.32;;;0.30;;
51020;SDS011;38907;45.562;8.856;2023-08-07T02:02:36;0.50;;;0.30;;
51020;SDS011;38907;45.562;8.856;2023-08-07T02:07:40;0.20;;;0.20;;
51020;SDS011;38907;45.562;8.856;2023-08-07T02:12:42;1.17;;;0.20;;
51020;SDS011;38907;45.562;8.856;2023-08-07T02:17:44;0.20;;;0.20;;
51020;SDS011;38907;45.562;8.856;2023-08-07T02:22:48;0.20;;;0.20;;
51020;SDS011;38907;45.562;8.856;2023-08-07T02:27:50;0.20;;;0.20;;
51020;SDS011;38907;45.562;8.856;2023-08-07T02:32:52;0.20;;;0.20;;
51020;SDS011;38907;45.562;8.856;2023-08-07T02:37:55;0.45;;;0.20;;
51020;SDS011;38907;45.562;8.856;2023-08-07T02:42:58;0.30;;;0.30;;
51020;SDS011;38907;45.562;8.856;2023-08-07T02:48:00;0.97;;;0.30;;
51020;SDS011;38907;45.562;8.856;2023-08-07T02:53:03;0.63;;;0.28;;
51020;SDS011;38907;45.562;8.856;2023-08-07T02:58:05;0.20;;;0.20;;
51020;SDS011;38907;45.562;8.856;2023-08-07T03:03:07;0.33;;;0.30;;
51020;SDS011;38907;45.562;8.856;2023-08-07T03:08:11;0.33;;;0.20;;
51020;SDS011;38907;45.562;8.856;2023-08-07T03:13:13;0.40;;;0.35;;
51020;SDS011;38907;45.562;8.856;2023-08-07T03:18:15;0.23;;;0.23;;
51020;SDS011;38907;45.562;8.856;2023-08-07T03:23:19;0.40;;;0.40;;
51020;SDS011;38907;45.562;8.856;2023-08-07T03:28:21;0.38;;;0.35;;
51020;SDS011;38907;45.562;8.856;2023-08-07T03:33:23;0.20;;;0.20;;
51020;SDS011;38907;45.562;8.856;2023-08-07T03:38:27;0.20;;;0.20;;
51020;SDS011;38907;45.562;8.856;2023-08-07T03:43:29;1.50;;;0.32;;
51020;SDS011;38907;45.562;8.856;2023-08-07T03:48:31;0.53;;;0.30;;
51020;SDS011;38907;45.562;8.856;2023-08-07T03:53:35;0.77;;;0.47;;
51020;SDS011;38907;45.562;8.856;2023-08-07T03:58:37;0.47;;;0.30;;
51020;SDS011;38907;45.562;8.856;2023-08-07T04:03:39;1.07;;;0.33;;
51020;SDS011;38907;45.562;8.856;2023-08-07T04:08:44;0.40;;;0.40;;
51020;SDS011;38907;45.562;8.856;2023-08-07T04:13:46;0.63;;;0.47;;
51020;SDS011;38907;45.562;8.856;2023-08-07T04:18:48;0.83;;;0.53;;
51020;SDS011;38907;45.562;8.856;2023-08-07T04:23:52;0.30;;;0.30;;
51020;SDS011;38907;45.562;8.856;2023-08-07T04:28:54;0.70;;;0.40;;
51020;SDS011;38907;45.562;8.856;2023-08-07T04:33:56;0.53;;;0.50;;
51020;SDS011;38907;45.562;8.856;2023-08-07T04:39:00;0.50;;;0.40;;
51020;SDS011;38907;45.562;8.856;2023-08-07T04:44:03;0.82;;;0.50;;
51020;SDS011;38907;45.562;8.856;2023-08-07T04:49:05;0.90;;;0.50;;
51020;SDS011;38907;45.562;8.856;2023-08-07T04:54:08;0.80;;;0.70;;
51020;SDS011;38907;45.562;8.856;2023-08-07T04:59:11;0.73;;;0.50;;
51020;SDS011;38907;45.562;8.856;2023-08-07T05:04:13;2.05;;;0.80;;
51020;SDS011;38907;45.562;8.856;2023-08-07T05:09:17;0.37;;;0.33;;
51020;SDS011;38907;45.562;8.856;2023-08-07T05:14:19;0.65;;;0.40;;
51020;SDS011;38907;45.562;8.856;2023-08-07T05:19:21;0.30;;;0.30;;
51020;SDS011;38907;45.562;8.856;2023-08-07T05:24:24;0.40;;;0.40;;
51020;SDS011;38907;45.562;8.856;2023-08-07T05:29:27;1.75;;;0.30;;
51020;SDS011;38907;45.562;8.856;2023-08-07T05:34:29;0.30;;;0.30;;
51020;SDS011;38907;45.562;8.856;2023-08-07T05:39:32;0.37;;;0.30;;
51020;SDS011;38907;45.562;8.856;2023-08-07T05:44:34;0.52;;;0.30;;
51020;SDS011;38907;45.562;8.856;2023-08-07T05:49:37;1.90;;;0.40;;
51020;SDS011;38907;45.562;8.856;2023-08-07T05:54:40;0.20;;;0.20;;
51020;SDS011;38907;45.562;8.856;2023-08-07T05:59:43;4.05;;;0.57;;
51020;SDS011;38907;45.562;8.856;2023-08-07T06:04:45;0.50;;;0.38;;
51020;SDS011;38907;45.562;8.856;2023-08-07T06:09:49;0.95;;;0.40;;
51020;SDS011;38907;45.562;8.856;2023-08-07T06:14:52;1.45;;;0.15;;
51020;SDS011;38907;45.562;8.856;2023-08-07T06:19:54;0.40;;;0.20;;
51020;SDS011;38907;45.562;8.856;2023-08-07T06:24:57;0.25;;;0.25;;
51020;SDS011;38907;45.562;8.856;2023-08-07T06:30:00;1.40;;;0.40;;
51020;SDS011;38907;45.562;8.856;2023-08-07T06:35:03;0.43;;;0.20;;
51020;SDS011;38907;45.562;8.856;2023-08-07T06:40:07;0.65;;;0.50;;
51020;SDS011;38907;45.562;8.856;2023-08-07T06:45:09;0.70;;;0.40;;
51020;SDS011;38907;45.562;8.856;2023-08-07T06:50:12;3.10;;;0.45;;
51020;SDS011;38907;45.562;8.856;2023-08-07T06:55:15;0.75;;;0.30;;
51020;SDS011;38907;45.562;8.856;2023-08-07T07:00:19;1.73;;;0.30;;
51020;SDS011;38907;45.562;8.856;2023-08-07T07:05:21;2.65;;;0.40;;
51020;SDS011;38907;45.562;8.856;2023-08-07T07:10:24;1.00;;;0.30;;
51020;SDS011;38907;45.562;8.856;2023-08-07T07:15:27;3.05;;;0.30;;
51020;SDS011;38907;45.562;8.856;2023-08-07T07:20:29;2.20;;;0.50;;
51020;SDS011;38907;45.562;8.856;2023-08-07T07:25:32;1.67;;;0.30;;
51020;SDS011;38907;45.562;8.856;2023-08-07T07:30:35;0.30;;;0.25;;
51020;SDS011;38907;45.562;8.856;2023-08-07T07:35:38;0.60;;;0.22;;
51020;SDS011;38907;45.562;8.856;2023-08-07T07:40:41;1.95;;;0.30;;
51020;SDS011;38907;45.562;8.856;2023-08-07T07:45:45;1.65;;;0.30;;
51020;SDS011;38907;45.562;8.856;2023-08-07T07:50:47;0.70;;;0.20;;
51020;SDS011;38907;45.562;8.856;2023-08-07T07:55:51;0.15;;;0.15;;
51020;SDS011;38907;45.562;8.856;2023-08-07T08:00:53;0.65;;;0.32;;
51020;SDS011;38907;45.562;8.856;2023-08-07T08:05:55;0.30;;;0.30;;
51020;SDS011;38907;45.562;8.856;2023-08-07T08:11:00;0.20;;;0.20;;
51020;SDS011;38907;45.562;8.856;2023-08-07T08:16:02;0.70;;;0.30;;
51020;SDS011;38907;45.562;8.856;2023-08-07T08:21:04;1.45;;;0.20;;
51020;SDS011;38907;45.562;8.856;2023-08-07T08:26:08;0.20;;;0.20;;
51020;SDS011;38907;45.562;8.856;2023-08-07T08:31:10;0.40;;;0.30;;
51020;SDS011;38907;45.562;8.856;2023-08-07T08:36:12;0.30;;;0.30;;
51020;SDS011;38907;45.562;8.856;2023-08-07T08:41:16;1.10;;;0.30;;
51020;SDS011;38907;45.562;8.856;2023-08-07T08:46:18;0.70;;;0.35;;
51020;SDS011;38907;45.562;8.856;2023-08-07T08:51:22;0.98;;;0.25;;
51020;SDS011;38907;45.562;8.856;2023-08-07T08:56:27;0.38;;;0.35;;
51020;SDS011;38907;45.562;8.856;2023-08-07T09:01:30;0.20;;;0.20;;
51020;SDS011;38907;45.562;8.856;2023-08-07T09:11:36;0.20;;;0.20;;
51020;SDS011;38907;45.562;8.856;2023-08-07T09:16:39;0.55;;;0.30;;
51020;SDS011;38907;45.562;8.856;2023-08-07T09:21:41;1.70;;;0.45;;
51020;SDS011;38907;45.562;8.856;2023-08-07T09:26:44;0.30;;;0.30;;
51020;SDS011;38907;45.562;8.856;2023-08-07T09:31:47;0.40;;;0.30;;
51020;SDS011;38907;45.562;8.856;2023-08-07T09:36:50;0.45;;;0.30;;
51020;SDS011;38907;45.562;8.856;2023-08-07T09:41:55;0.73;;;0.40;;
51020;SDS011;38907;45.562;8.856;2023-08-07T09:46:57;1.30;;;0.30;;
51020;SDS011;38907;45.562;8.856;2023-08-07T09:57:03;0.30;;;0.30;;
51020;SDS011;38907;45.562;8.856;2023-08-07T10:02:05;0.30;;;0.30;;
51020;SDS011;38907;45.562;8.856;2023-08-07T10:07:08;0.60;;;0.20;;
51020;SDS011;38907;45.562;8.856;2023-08-07T10:12:13;0.60;;;0.30;;
51020;SDS011;38907;45.562;8.856;2023-08-07T10:17:17;3.10;;;0.35;;
51020;SDS011;38907;45.562;8.856;2023-08-07T10:22:20;0.77;;;0.30;;
51020;SDS011;38907;45.562;8.856;2023-08-07T10:27:25;0.60;;;0.35;;
51020;SDS011;38907;45.562;8.856;2023-08-07T10:32:29;1.85;;;0.30;;
51020;SDS011;38907;45.562;8.856;2023-08-07T10:37:32;0.20;;;0.20;;
51020;SDS011;38907;45.562;8.856;2023-08-07T10:48:04;0.20;;;0.20;;
51020;SDS011;38907;45.562;8.856;2023-08-07T10:53:07;1.58;;;0.20;;
51020;SDS011;38907;45.562;8.856;2023-08-07T10:58:20;1.85;;;0.30;;
51020;SDS011;38907;45.562;8.856;2023-08-07T11:03:28;1.60;;;0.20;;
51020;SDS011;38907;45.562;8.856;2023-08-07T11:08:30;0.98;;;0.20;;
51020;SDS011;38907;45.562;8.856;2023-08-07T11:18:36;1.67;;;0.15;;
51020;SDS011;38907;45.562;8.856;2023-08-07T11:23:41;0.57;;;0.30;;
51020;SDS011;38907;45.562;8.856;2023-08-07T11:28:44;0.20;;;0.20;;
51020;SDS011;38907;45.562;8.856;2023-08-07T11:33:47;3.90;;;0.30;;
51020;SDS011;38907;45.562;8.856;2023-08-07T11:38:52;0.40;;;0.20;;
51020;SDS011;38907;45.562;8.856;2023-08-07T11:49:05;0.35;;;0.22;;
51020;SDS011;38907;45.562;8.856;2023-08-07T11:54:13;0.30;;;0.30;;
51020;SDS011;38907;45.562;8.856;2023-08-07T11:59:16;0.52;;;0.40;;
51020;SDS011;38907;45.562;8.856;2023-08-07T12:04:20;0.60;;;0.30;;
51020;SDS011;38907;45.562;8.856;2023-08-07T12:09:22;0.55;;;0.20;;
51020;SDS011;38907;45.562;8.856;2023-08-07T12:14:28;0.43;;;0.30;;
51020;SDS011;38907;45.562;8.856;2023-08-07T12:19:38;0.20;;;0.20;;
51020;SDS011;38907;45.562;8.856;2023-08-07T12:24:43;0.30;;;0.30;;
51020;SDS011;38907;45.562;8.856;2023-08-07T12:34:48;0.50;;;0.30;;
51020;SDS011;38907;45.562;8.856;2023-08-07T12:39:50;0.75;;;0.45;;
51020;SDS011;38907;45.562;8.856;2023-08-07T12:49:56;0.60;;;0.22;;
51020;SDS011;38907;45.562;8.856;2023-08-07T12:55:00;0.20;;;0.20;;
51020;SDS011;38907;45.562;8.856;2023-08-07T13:00:02;0.20;;;0.20;;
51020;SDS011;38907;45.562;8.856;2023-08-07T13:05:06;0.68;;;0.30;;
51020;SDS011;38907;45.562;8.856;2023-08-07T13:10:10;2.47;;;0.30;;
51020;SDS011;38907;45.562;8.856;2023-08-07T13:15:14;0.43;;;0.30;;
51020;SDS011;38907;45.562;8.856;2023-08-07T13:20:17;0.35;;;0.30;;
51020;SDS011;38907;45.562;8.856;2023-08-07T13:25:20;0.85;;;0.30;;
51020;SDS011;38907;45.562;8.856;2023-08-07T13:30:23;0.63;;;0.30;;
51020;SDS011;38907;45.562;8.856;2023-08-07T13:35:27;0.52;;;0.30;;
51020;SDS011;38907;45.562;8.856;2023-08-07T13:40:31;0.50;;;0.30;;
51020;SDS011;38907;45.562;8.856;2023-08-07T13:45:33;2.25;;;0.50;;
51020;SDS011;38907;45.562;8.856;2023-08-07T13:50:38;2.60;;;0.50;;
51020;SDS011;38907;45.562;8.856;2023-08-07T13:55:41;0.40;;;0.30;;
51020;SDS011;38907;45.562;8.856;2023-08-07T14:00:43;0.20;;;0.20;;
51020;SDS011;38907;45.562;8.856;2023-08-07T14:05:47;0.45;;;0.20;;
51020;SDS011;38907;45.562;8.856;2023-08-07T14:10:50;0.20;;;0.20;;
51020;SDS011;38907;45.562;8.856;2023-08-07T14:15:52;0.22;;;0.20;;
51020;SDS011;38907;45.562;8.856;2023-08-07T14:20:56;0.20;;;0.20;;
51020;SDS011;38907;45.562;8.856;2023-08-07T14:25:58;0.20;;;0.20;;
51020;SDS011;38907;45.562;8.856;2023-08-07T14:31:00;0.35;;;0.30;;
51020;SDS011;38907;45.562;8.856;2023-08-07T14:36:09;0.45;;;0.30;;
51020;SDS011;38907;45.562;8.856;2023-08-07T14:41:11;1.63;;;0.30;;
51020;SDS011;38907;45.562;8.856;2023-08-07T14:46:15;0.50;;;0.30;;
51020;SDS011;38907;45.562;8.856;2023-08-07T14:51:19;1.17;;;0.20;;
51020;SDS011;38907;45.562;8.856;2023-08-07T14:56:22;0.22;;;0.22;;
51020;SDS011;38907;45.562;8.856;2023-08-07T15:01:24;0.80;;;0.35;;
51020;SDS011;38907;45.562;8.856;2023-08-07T15:06:27;0.30;;;0.30;;
51020;SDS011;38907;45.562;8.856;2023-08-07T15:11:29;0.40;;;0.40;;
51020;SDS011;38907;45.562;8.856;2023-08-07T15:16:32;0.85;;;0.40;;
51020;SDS011;38907;45.562;8.856;2023-08-07T15:21:36;0.40;;;0.30;;
51020;SDS011;38907;45.562;8.856;2023-08-07T15:26:39;0.52;;;0.30;;
51020;SDS011;38907;45.562;8.856;2023-08-07T15:31:41;0.40;;;0.30;;
51020;SDS011;38907;45.562;8.856;2023-08-07T15:36:44;1.60;;;0.52;;
51020;SDS011;38907;45.562;8.856;2023-08-07T15:41:46;0.30;;;0.22;;
51020;SDS011;38907;45.562;8.856;2023-08-07T15:46:49;1.17;;;0.50;;
51020;SDS011;38907;45.562;8.856;2023-08-07T15:51:52;0.80;;;0.50;;
51020;SDS011;38907;45.562;8.856;2023-08-07T15:56:54;2.72;;;0.55;;
51020;SDS011;38907;45.562;8.856;2023-08-07T16:01:57;1.38;;;0.47;;
51020;SDS011;38907;45.562;8.856;2023-08-07T16:07:00;2.17;;;0.57;;
51020;SDS011;38907;45.562;8.856;2023-08-07T16:12:03;0.40;;;0.40;;
51020;SDS011;38907;45.562;8.856;2023-08-07T16:17:06;0.75;;;0.60;;
51020;SDS011;38907;45.562;8.856;2023-08-07T16:22:10;1.30;;;0.60;;
51020;SDS011;38907;45.562;8.856;2023-08-07T16:27:12;0.60;;;0.40;;
51020;SDS011;38907;45.562;8.856;2023-08-07T16:32:15;1.15;;;0.50;;
51020;SDS011;38907;45.562;8.856;2023-08-07T16:37:18;0.88;;;0.60;;
51020;SDS011;38907;45.562;8.856;2023-08-07T16:42:20;0.52;;;0.50;;
51020;SDS011;38907;45.562;8.856;2023-08-07T16:47:23;2.35;;;0.60;;
51020;SDS011;38907;45.562;8.856;2023-08-07T16:52:26;0.73;;;0.52;;
51020;SDS011;38907;45.562;8.856;2023-08-07T16:57:28;0.80;;;0.75;;
51020;SDS011;38907;45.562;8.856;2023-08-07T17:02:30;2.30;;;0.57;;
51020;SDS011;38907;45.562;8.856;2023-08-07T17:07:34;0.70;;;0.60;;
51020;SDS011;38907;45.562;8.856;2023-08-07T17:12:37;1.13;;;0.52;;
51020;SDS011;38907;45.562;8.856;2023-08-07T17:22:42;0.95;;;0.60;;
51020;SDS011;38907;45.562;8.856;2023-08-07T17:27:44;1.15;;;0.60;;
51020;SDS011;38907;45.562;8.856;2023-08-07T17:37:50;0.70;;;0.60;;
51020;SDS011;38907;45.562;8.856;2023-08-07T17:42:52;1.00;;;0.85;;
51020;SDS011;38907;45.562;8.856;2023-08-07T17:52:57;0.50;;;0.50;;
51020;SDS011;38907;45.562;8.856;2023-08-07T17:58:00;1.02;;;0.60;;
51020;SDS011;38907;45.562;8.856;2023-08-07T18:03:03;1.17;;;0.80;;
51020;SDS011;38907;45.562;8.856;2023-08-07T18:08:08;1.35;;;0.80;;
51020;SDS011;38907;45.562;8.856;2023-08-07T18:13:10;1.20;;;0.68;;
51020;SDS011;38907;45.562;8.856;2023-08-07T18:18:12;0.80;;;0.68;;
51020;SDS011;38907;45.562;8.856;2023-08-07T18:23:16;0.90;;;0.70;;
51020;SDS011;38907;45.562;8.856;2023-08-07T18:28:19;1.30;;;0.70;;
51020;SDS011;38907;45.562;8.856;2023-08-07T18:33:21;1.48;;;0.70;;
51020;SDS011;38907;45.562;8.856;2023-08-07T18:38:24;0.52;;;0.52;;
51020;SDS011;38907;45.562;8.856;2023-08-07T18:43:26;1.15;;;0.68;;
51020;SDS011;38907;45.562;8.856;2023-08-07T18:48:29;0.65;;;0.55;;
51020;SDS011;38907;45.562;8.856;2023-08-07T18:53:32;1.38;;;0.65;;
51020;SDS011;38907;45.562;8.856;2023-08-07T18:58:34;0.85;;;0.60;;
51020;SDS011;38907;45.562;8.856;2023-08-07T19:03:36;1.13;;;0.80;;
51020;SDS011;38907;45.562;8.856;2023-08-07T19:08:40;1.05;;;0.70;;
51020;SDS011;38907;45.562;8.856;2023-08-07T19:13:42;1.02;;;0.73;;
51020;SDS011;38907;45.562;8.856;2023-08-07T19:18:44;2.15;;;0.60;;
51020;SDS011;38907;45.562;8.856;2023-08-07T19:23:48;2.65;;;0.70;;
51020;SDS011;38907;45.562;8.856;2023-08-07T19:28:50;0.63;;;0.60;;
51020;SDS011;38907;45.562;8.856;2023-08-07T19:33:53;1.08;;;0.73;;
51020;SDS011;38907;45.562;8.856;2023-08-07T19:38:56;2.65;;;0.77;;
51020;SDS011;38907;45.562;8.856;2023-08-07T19:43:59;0.77;;;0.70;;
51020;SDS011;38907;45.562;8.856;2023-08-07T19:49:01;1.00;;;0.80;;
51020;SDS011;38907;45.562;8.856;2023-08-07T19:54:04;2.85;;;0.57;;
51020;SDS011;38907;45.562;8.856;2023-08-07T19:59:07;0.88;;;0.73;;
51020;SDS011;38907;45.562;8.856;2023-08-07T20:09:15;0.60;;;0.52;;
51020;SDS011;38907;45.562;8.856;2023-08-07T20:14:18;0.75;;;0.68;;
51020;SDS011;38907;45.562;8.856;2023-08-07T20:19:20;0.80;;;0.65;;
51020;SDS011;38907;45.562;8.856;2023-08-07T20:24:24;0.77;;;0.52;;
51020;SDS011;38907;45.562;8.856;2023-08-07T20:29:28;1.30;;;0.77;;
51020;SDS011;38907;45.562;8.856;2023-08-07T20:34:30;1.27;;;0.70;;
51020;SDS011;38907;45.562;8.856;2023-08-07T20:39:34;0.70;;;0.60;;
51020;SDS011;38907;45.562;8.856;2023-08-07T20:44:36;0.95;;;0.63;;
51020;SDS011;38907;45.562;8.856;2023-08-07T20:49:38;1.05;;;0.80;;
51020;SDS011;38907;45.562;8.856;2023-08-07T20:54:42;2.60;;;0.70;;
51020;SDS011;38907;45.562;8.856;2023-08-07T20:59:44;1.05;;;0.68;;
51020;SDS011;38907;45.562;8.856;2023-08-07T21:04:46;1.30;;;0.80;;
51020;SDS011;38907;45.562;8.856;2023-08-07T21:09:50;0.75;;;0.47;;
51020;SDS011;38907;45.562;8.856;2023-08-07T21:14:52;1.25;;;0.77;;
51020;SDS011;38907;45.562;8.856;2023-08-07T21:19:54;3.42;;;0.90;;
51020;SDS011;38907;45.562;8.856;2023-08-07T21:24:58;0.50;;;0.50;;
51020;SDS011;38907;45.562;8.856;2023-08-07T21:30:00;0.60;;;0.57;;
51020;SDS011;38907;45.562;8.856;2023-08-07T21:35:03;0.95;;;0.70;;
51020;SDS011;38907;45.562;8.856;2023-08-07T21:45:10;0.52;;;0.50;;
51020;SDS011;38907;45.562;8.856;2023-08-07T21:50:12;1.00;;;0.75;;
51020;SDS011;38907;45.562;8.856;2023-08-07T21:55:15;1.80;;;0.80;;
51020;SDS011;38907;45.562;8.856;2023-08-07T22:00:19;0.95;;;0.60;;
51020;SDS011;38907;45.562;8.856;2023-08-07T22:05:22;0.98;;;0.70;;
51020;SDS011;38907;45.562;8.856;2023-08-07T22:10:24;0.75;;;0.50;;
51020;SDS011;38907;45.562;8.856;2023-08-07T22:15:28;1.17;;;0.65;;
51020;SDS011;38907;45.562;8.856;2023-08-07T22:20:32;0.50;;;0.40;;
51020;SDS011;38907;45.562;8.856;2023-08-07T22:25:34;0.63;;;0.60;;
51020;SDS011;38907;45.562;8.856;2023-08-07T22:30:37;0.82;;;0.68;;
51020;SDS011;38907;45.562;8.856;2023-08-07T22:35:40;1.83;;;0.60;;
51020;SDS011;38907;45.562;8.856;2023-08-07T22:40:42;0.70;;;0.57;;
51020;SDS011;38907;45.562;8.856;2023-08-07T22:45:47;1.13;;;0.60;;
51020;SDS011;38907;45.562;8.856;2023-08-07T22:50:50;1.00;;;0.60;;
51020;SDS011;38907;45.562;8.856;2023-08-07T23:00:56;0.45;;;0.45;;
51020;SDS011;38907;45.562;8.856;2023-08-07T23:05:59;0.55;;;0.52;;
51020;SDS011;38907;45.562;8.856;2023-08-07T23:11:01;1.08;;;0.60;;
51020;SDS011;38907;45.562;8.856;2023-08-07T23:21:07;0.47;;;0.40;;
51020;SDS011;38907;45.562;8.856;2023-08-07T23:26:09;0.57;;;0.57;;
51020;SDS011;38907;45.562;8.856;2023-08-07T23:31:11;1.38;;;0.73;;
51020;SDS011;38907;45.562;8.856;2023-08-07T23:36:16;0.75;;;0.50;;
51020;SDS011;38907;45.562;8.856;2023-08-07T23:41:18;1.55;;;0.50;;
51020;SDS011;38907;45.562;8.856;2023-08-07T23:46:20;1.42;;;0.75;;
51020;SDS011;38907;45.562;8.856;2023-08-07T23:51:23;0.52;;;0.50;;
51020;SDS011;38907;45.562;8.856;2023-08-07T23:56:26;0.90;;;0.68;;
